Time;durP1;ratioP1;P1;durP2;ratioP2;P2;SDS_P1;SDS_P2;PMS_P1;PMS_P2;Temp;Humidity;BMP_temperature;BMP_pressure;BME280_temperature;BME280_humidity;BME280_pressure;Samples;Min_cycle;Max_cycle;Signal;HPM_P1;HPM_P2
2022/03/12 00:01:16;;;;;;;;;;;;;;;1.78;33.68;101494.06;4383994;32;20458;-73
2022/03/12 00:03:45;;;;;;;;;;;;;;;1.98;33.39;101493.03;4382448;32;19993;-74
2022/03/12 00:06:12;;;;;;;;;;;;;;;1.91;32.94;101490.78;4384302;32;19991;-73
2022/03/12 00:08:43;;;;;;;;;;;;;;;1.98;33.02;101487.94;4385782;32;20002;-73
2022/03/12 00:11:19;;;;;;;;;;;;;;;1.99;33.49;101489.72;4390540;32;20064;-73
2022/03/12 00:13:46;;;;;;;;;;;;;;;1.75;33.64;101489.59;4384748;32;20050;-73
2022/03/12 00:16:18;;;;;;;;;;;;;;;1.50;33.86;101485.91;4383603;32;20014;-72
2022/03/12 00:18:46;;;;;;;;;;;;;;;1.55;34.00;101492.28;4398545;32;19989;-72
2022/03/12 00:21:15;;;;;;;;;;;;;;;1.69;33.95;101484.06;4415849;32;20465;-73
2022/03/12 00:23:48;;;;;;;;;;;;;;;1.56;33.70;101478.72;4420479;32;20022;-73
2022/03/12 00:26:16;;;;;;;;;;;;;;;1.65;34.54;101486.22;4415657;32;20286;-72
2022/03/12 00:28:43;;;;;;;;;;;;;;;1.44;34.44;101481.22;4414575;32;20001;-73
2022/03/12 00:31:12;;;;;;;;;;;;;;;1.58;34.10;101480.63;4413969;32;20044;-73
2022/03/12 00:33:39;;;;;;;;;;;;;;;1.42;34.02;101479.31;4414499;32;20020;-73
2022/03/12 00:36:07;;;;;;;;;;;;;;;1.35;34.16;101485.59;4427790;32;20049;-73
2022/03/12 00:38:34;;;;;;;;;;;;;;;1.45;34.30;101477.00;4431274;32;20073;-73
2022/03/12 00:41:05;;;;;;;;;;;;;;;1.47;34.38;101478.00;4414215;32;19986;-72
2022/03/12 00:43:31;;;;;;;;;;;;;;;1.45;33.85;101482.13;4416334;32;19978;-73
2022/03/12 00:45:58;;;;;;;;;;;;;;;1.43;34.47;101473.44;4422625;32;20781;-73
2022/03/12 00:48:25;;;;;;;;;;;;;;;1.30;35.13;101477.56;4418365;32;19989;-72
2022/03/12 00:51:03;;;;;;;;;;;;;;;1.39;34.19;101488.50;4416080;32;20578;-73
2022/03/12 00:53:30;;;;;;;;;;;;;;;1.44;33.44;101482.91;4416128;32;20028;-73
2022/03/12 00:55:57;;;;;;;;;;;;;;;1.38;33.59;101481.63;4416219;32;19985;-71
2022/03/12 00:58:24;;;;;;;;;;;;;;;1.29;34.68;101480.00;4419493;32;20007;-72
2022/03/12 01:00:51;;;;;;;;;;;;;;;1.43;34.45;101483.66;4421027;32;20005;-72
2022/03/12 01:03:18;;;;;;;;;;;;;;;1.30;34.41;101487.78;4415937;32;20704;-73
2022/03/12 01:05:49;;;;;;;;;;;;;;;1.48;33.60;101477.25;4415930;32;20128;-73
2022/03/12 01:08:16;;;;;;;;;;;;;;;1.24;35.20;101476.19;4421035;32;20008;-73
2022/03/12 01:10:43;;;;;;;;;;;;;;;1.56;34.38;101472.00;4430581;32;19997;-73
2022/03/12 01:13:13;;;;;;;;;;;;;;;1.52;34.50;101479.28;4427073;32;20023;-73
2022/03/12 01:15:40;;;;;;;;;;;;;;;1.38;33.74;101475.66;4426984;32;19993;-73
2022/03/12 01:18:15;;;;;;;;;;;;;;;1.55;33.96;101474.41;4427166;32;20049;-74
2022/03/12 01:20:42;;;;;;;;;;;;;;;1.43;34.91;101473.44;4415801;32;19982;-72
2022/03/12 01:23:09;;;;;;;;;;;;;;;1.28;35.01;101474.03;4416132;32;19974;-73
2022/03/12 01:25:36;;;;;;;;;;;;;;;1.32;34.35;101485.34;4426738;32;19986;-74
2022/03/12 01:28:03;;;;;;;;;;;;;;;1.29;35.01;101482.56;4416263;32;20094;-72
2022/03/12 01:30:30;;;;;;;;;;;;;;;1.47;35.21;101480.56;4415778;32;20744;-73
2022/03/12 01:32:57;;;;;;;;;;;;;;;1.36;34.61;101472.94;4415741;32;20328;-73
2022/03/12 01:35:24;;;;;;;;;;;;;;;1.18;35.14;101486.78;4427042;32;20373;-73
2022/03/12 01:37:52;;;;;;;;;;;;;;;1.34;34.32;101484.72;4418201;32;20009;-73
2022/03/12 01:40:19;;;;;;;;;;;;;;;1.15;34.95;101491.69;4422393;32;19982;-72
2022/03/12 01:42:46;;;;;;;;;;;;;;;1.08;34.98;101494.47;4425323;32;19985;-72
2022/03/12 01:45:13;;;;;;;;;;;;;;;1.26;35.06;101495.97;4431203;32;20764;-73
2022/03/12 01:47:40;;;;;;;;;;;;;;;1.21;35.31;101499.78;4436297;32;19995;-73
2022/03/12 01:50:08;;;;;;;;;;;;;;;1.15;34.94;101496.78;4430972;32;19993;-75
2022/03/12 01:52:34;;;;;;;;;;;;;;;1.10;35.11;101500.59;4430997;32;19977;-73
2022/03/12 01:55:01;;;;;;;;;;;;;;;0.95;34.93;101499.34;4424076;32;19998;-73
2022/03/12 01:57:29;;;;;;;;;;;;;;;1.10;35.47;101498.94;4430030;32;20035;-73
2022/03/12 01:59:56;;;;;;;;;;;;;;;1.23;34.28;101500.81;4427392;32;19998;-73
2022/03/12 02:02:24;;;;;;;;;;;;;;;1.21;34.40;101501.44;4415922;32;19995;-73
2022/03/12 02:04:52;;;;;;;;;;;;;;;1.12;34.32;101501.63;4416132;32;19994;-73
2022/03/12 02:07:21;;;;;;;;;;;;;;;1.21;34.23;101499.78;4414351;32;19982;-73
2022/03/12 02:09:48;;;;;;;;;;;;;;;1.10;35.03;101496.38;4426780;32;19977;-73
2022/03/12 02:12:15;;;;;;;;;;;;;;;1.26;35.18;101495.97;4427328;32;20016;-74
2022/03/12 02:14:42;;;;;;;;;;;;;;;1.12;35.20;101491.44;4427121;32;20009;-74
2022/03/12 02:17:09;;;;;;;;;;;;;;;1.11;35.03;101489.62;4400391;32;400282;-73
2022/03/12 02:19:36;;;;;;;;;;;;;;;1.07;35.42;101502.91;4420360;32;20637;-73
2022/03/12 02:22:04;;;;;;;;;;;;;;;1.10;34.71;101492.94;4427101;32;20020;-73
2022/03/12 02:24:32;;;;;;;;;;;;;;;1.11;34.48;101494.72;4417830;32;19994;-74
2022/03/12 02:27:00;;;;;;;;;;;;;;;1.12;34.86;101491.44;4435519;32;20007;-72
2022/03/12 02:29:27;;;;;;;;;;;;;;;1.15;35.42;101491.69;4431003;32;20031;-73
2022/03/12 02:31:56;;;;;;;;;;;;;;;1.12;35.44;101499.06;4431375;32;20035;-73
2022/03/12 02:34:26;;;;;;;;;;;;;;;0.89;35.42;101493.00;4426296;32;20004;-73
2022/03/12 02:36:57;;;;;;;;;;;;;;;1.06;34.93;101496.91;4368595;32;5084607;-73
2022/03/12 02:39:27;;;;;;;;;;;;;;;1.22;34.37;101499.03;4421115;32;20514;-73
2022/03/12 02:41:55;;;;;;;;;;;;;;;1.00;34.79;101500.63;4426397;32;20370;-73
2022/03/12 02:44:23;;;;;;;;;;;;;;;0.96;35.48;101498.56;4427766;32;19986;-73
2022/03/12 02:47:12;;;;;;;;;;;;;;;0.91;35.59;101500.78;4424661;32;19997;-73
2022/03/12 02:49:45;;;;;;;;;;;;;;;0.84;36.18;101499.38;4416062;32;19994;-73
2022/03/12 02:52:13;;;;;;;;;;;;;;;1.06;35.33;101508.78;4424600;32;19977;-74
2022/03/12 02:54:41;;;;;;;;;;;;;;;1.03;35.77;101500.88;4415820;32;19978;-72
2022/03/12 02:57:08;;;;;;;;;;;;;;;1.10;34.99;101508.25;4414460;32;20042;-72
2022/03/12 02:59:35;;;;;;;;;;;;;;;1.11;34.68;101512.56;4415602;32;19985;-72
2022/03/12 03:02:04;;;;;;;;;;;;;;;0.95;35.24;101502.78;4415870;32;20048;-72
2022/03/12 03:04:34;;;;;;;;;;;;;;;1.20;35.29;101494.56;4389170;32;20028;-70
2022/03/12 03:07:02;;;;;;;;;;;;;;;1.07;35.97;101497.81;4396063;32;20001;-71
2022/03/12 03:09:29;;;;;;;;;;;;;;;1.11;35.49;101510.03;4413035;32;20819;-70
2022/03/12 03:11:57;;;;;;;;;;;;;;;0.76;36.01;101510.59;4425590;32;20061;-70
2022/03/12 03:14:26;;;;;;;;;;;;;;;0.87;35.53;101499.62;4416087;32;19978;-71
2022/03/12 03:16:53;;;;;;;;;;;;;;;0.65;35.50;101511.37;4422719;32;20012;-69
2022/03/12 03:19:26;;;;;;;;;;;;;;;0.84;35.52;101509.59;4417867;32;19994;-71
2022/03/12 03:21:53;;;;;;;;;;;;;;;0.76;35.09;101509.72;4422361;32;19981;-72
2022/03/12 03:24:21;;;;;;;;;;;;;;;1.02;34.59;101515.28;4415451;32;20001;-71
2022/03/12 03:26:48;;;;;;;;;;;;;;;1.09;34.63;101501.37;4426472;32;20016;-70
2022/03/12 03:29:15;;;;;;;;;;;;;;;1.01;35.63;101507.50;4419492;32;19981;-70
2022/03/12 03:31:41;;;;;;;;;;;;;;;1.18;33.37;101502.09;4428966;32;20003;-70
2022/03/12 03:34:08;;;;;;;;;;;;;;;1.28;34.52;101509.72;4425417;32;20409;-71
2022/03/12 03:36:37;;;;;;;;;;;;;;;1.49;33.50;101504.53;4415409;32;19985;-70
2022/03/12 03:39:04;;;;;;;;;;;;;;;1.54;33.28;101501.59;4413796;32;19985;-71
2022/03/12 03:41:32;;;;;;;;;;;;;;;1.71;32.40;101510.56;4423560;32;20009;-71
2022/03/12 03:43:59;;;;;;;;;;;;;;;1.72;32.06;101507.22;4415989;32;19993;-70
2022/03/12 03:46:27;;;;;;;;;;;;;;;1.82;33.29;101512.31;4434764;32;20106;-70
2022/03/12 03:48:54;;;;;;;;;;;;;;;1.76;33.09;101511.81;4431858;32;20670;-72
2022/03/12 03:51:22;;;;;;;;;;;;;;;1.74;33.18;101518.47;4418470;32;19990;-72
2022/03/12 03:53:49;;;;;;;;;;;;;;;1.86;32.57;101521.97;4416176;32;20360;-72
2022/03/12 03:56:16;;;;;;;;;;;;;;;2.02;32.35;101512.97;4431835;32;20013;-72
2022/03/12 03:58:43;;;;;;;;;;;;;;;1.85;32.79;101511.63;4415198;32;19986;-73
2022/03/12 04:01:21;;;;;;;;;;;;;;;1.72;31.20;101509.78;4415008;32;19982;-71
2022/03/12 04:03:49;;;;;;;;;;;;;;;1.80;32.26;101513.84;4417192;32;20004;-71
2022/03/12 04:06:16;;;;;;;;;;;;;;;1.71;33.61;101513.12;4422039;32;19998;-71
2022/03/12 04:08:44;;;;;;;;;;;;;;;1.81;32.58;101510.50;4427140;32;20057;-71
2022/03/12 04:11:15;;;;;;;;;;;;;;;1.93;32.63;101509.69;4422473;32;19978;-71
2022/03/12 04:13:42;;;;;;;;;;;;;;;1.80;32.64;101507.84;4414689;32;19982;-70
2022/03/12 04:16:09;;;;;;;;;;;;;;;1.82;31.95;101508.88;4414571;32;20387;-70
2022/03/12 04:18:37;;;;;;;;;;;;;;;1.89;33.21;101507.69;4416816;32;19970;-73
2022/03/12 04:21:05;;;;;;;;;;;;;;;1.81;33.43;101510.50;4421776;32;19994;-72
2022/03/12 04:23:32;;;;;;;;;;;;;;;1.84;32.97;101513.28;4418915;32;20361;-72
2022/03/12 04:25:59;;;;;;;;;;;;;;;1.87;31.83;101510.97;4426513;32;19985;-70
2022/03/12 04:28:30;;;;;;;;;;;;;;;1.92;33.27;101513.03;4425988;32;19985;-72
2022/03/12 04:30:57;;;;;;;;;;;;;;;1.59;33.64;101513.03;4419144;32;19977;-71
2022/03/12 04:33:24;;;;;;;;;;;;;;;1.76;33.45;101511.81;4430262;32;19981;-70
2022/03/12 04:35:51;;;;;;;;;;;;;;;1.82;32.78;101512.31;4429411;32;20024;-70
2022/03/12 04:38:18;;;;;;;;;;;;;;;1.69;33.01;101508.66;4415958;32;20039;-72
2022/03/12 04:40:45;;;;;;;;;;;;;;;1.51;33.88;101513.22;4414518;32;20008;-70
2022/03/12 04:43:18;;;;;;;;;;;;;;;1.68;33.78;101507.75;4430319;32;20023;-72
2022/03/12 04:45:45;;;;;;;;;;;;;;;1.39;33.80;101514.00;4422996;32;20004;-71
2022/03/12 04:48:13;;;;;;;;;;;;;;;1.61;32.43;101520.81;4417404;32;19974;-72
2022/03/12 04:50:39;;;;;;;;;;;;;;;1.83;32.99;101519.19;4412915;32;20389;-72
2022/03/12 04:53:08;;;;;;;;;;;;;;;1.50;33.23;101521.63;4418497;32;19998;-71
2022/03/12 04:55:37;;;;;;;;;;;;;;;1.45;33.40;101525.50;4418141;32;19973;-70
2022/03/12 04:58:05;;;;;;;;;;;;;;;1.51;33.45;101534.53;4416148;32;19993;-72
2022/03/12 05:00:35;;;;;;;;;;;;;;;1.57;34.03;101531.56;4432424;32;19986;-71
2022/03/12 05:03:08;;;;;;;;;;;;;;;1.55;33.95;101531.44;4425259;32;19996;-72
2022/03/12 05:05:39;;;;;;;;;;;;;;;1.45;33.44;101535.69;4426454;32;19985;-71
2022/03/12 05:08:09;;;;;;;;;;;;;;;1.21;34.30;101532.94;4431858;32;19989;-72
2022/03/12 05:10:36;;;;;;;;;;;;;;;1.41;34.90;101531.13;4425339;32;19978;-72
2022/03/12 05:13:04;;;;;;;;;;;;;;;1.35;34.46;101534.97;4414006;32;19994;-72
2022/03/12 05:15:36;;;;;;;;;;;;;;;1.18;34.11;101532.69;4414013;32;20031;-70
2022/03/12 05:18:12;;;;;;;;;;;;;;;1.08;34.40;101530.19;4418725;32;20009;-71
2022/03/12 05:20:43;;;;;;;;;;;;;;;1.27;34.57;101533.44;4425212;32;20016;-72
2022/03/12 05:23:10;;;;;;;;;;;;;;;1.27;35.45;101533.44;4414170;32;20008;-70
2022/03/12 05:25:45;;;;;;;;;;;;;;;1.19;34.74;101534.50;4418629;32;20057;-70
2022/03/12 05:28:16;;;;;;;;;;;;;;;1.37;34.95;101533.44;4426348;32;19965;-71
2022/03/12 05:30:46;;;;;;;;;;;;;;;1.14;35.17;101535.78;4418361;32;19990;-69
2022/03/12 05:33:13;;;;;;;;;;;;;;;1.30;35.64;101533.69;4434157;32;20005;-71
2022/03/12 05:35:41;;;;;;;;;;;;;;;1.27;35.78;101546.19;4418507;32;19985;-72
2022/03/12 05:38:09;;;;;;;;;;;;;;;1.52;35.11;101541.41;4434196;32;19995;-71
2022/03/12 05:40:39;;;;;;;;;;;;;;;1.43;35.50;101539.78;4415026;32;20641;-73
2022/03/12 05:43:15;;;;;;;;;;;;;;;1.82;34.39;101531.84;4420603;32;19989;-71
2022/03/12 05:45:46;;;;;;;;;;;;;;;1.68;35.52;101533.28;4421469;32;20472;-72
2022/03/12 05:48:14;;;;;;;;;;;;;;;1.81;33.66;101530.94;4418559;32;19989;-71
2022/03/12 05:50:43;;;;;;;;;;;;;;;2.07;33.75;101534.63;4415942;32;19990;-71
2022/03/12 05:53:11;;;;;;;;;;;;;;;2.32;34.93;101519.50;4427007;32;19985;-71
2022/03/12 05:55:39;;;;;;;;;;;;;;;2.50;34.07;101527.69;4435698;32;20353;-69
2022/03/12 05:58:06;;;;;;;;;;;;;;;2.66;34.21;101525.50;4426696;32;19973;-72
2022/03/12 06:00:34;;;;;;;;;;;;;;;2.50;34.46;101527.69;4415596;32;19982;-72
2022/03/12 06:03:03;;;;;;;;;;;;;;;2.66;34.01;101529.72;4427875;32;20060;-72
2022/03/12 06:05:31;;;;;;;;;;;;;;;2.84;33.73;101525.06;4433272;32;19986;-72
2022/03/12 06:07:59;;;;;;;;;;;;;;;2.80;33.87;101527.41;4420222;32;20672;-73
2022/03/12 06:10:32;;;;;;;;;;;;;;;3.11;32.96;101522.00;4419339;32;19986;-72
2022/03/12 06:13:05;;;;;;;;;;;;;;;3.41;31.35;101523.31;4425840;32;19993;-72
2022/03/12 06:15:39;;;;;;;;;;;;;;;3.65;29.00;101529.31;4424464;32;20411;-72
2022/03/12 06:18:08;;;;;;;;;;;;;;;3.77;28.15;101530.97;4426200;32;19994;-71
2022/03/12 06:20:37;;;;;;;;;;;;;;;3.86;27.95;101529.94;4420473;32;20031;-72
2022/03/12 06:23:05;;;;;;;;;;;;;;;3.87;27.75;101525.69;4419054;32;20001;-72
2022/03/12 06:25:31;;;;;;;;;;;;;;;4.11;27.34;101531.63;4413731;32;20063;-71
2022/03/12 06:27:59;;;;;;;;;;;;;;;4.09;27.08;101526.41;4429649;32;19969;-71
2022/03/12 06:30:26;;;;;;;;;;;;;;;3.86;27.11;101534.13;4415865;32;20310;-71
2022/03/12 06:32:57;;;;;;;;;;;;;;;3.96;27.28;101536.59;4426568;32;20096;-71
2022/03/12 06:35:25;;;;;;;;;;;;;;;4.10;27.06;101534.97;4431306;32;20769;-71
2022/03/12 06:37:52;;;;;;;;;;;;;;;4.24;27.37;101528.22;4436158;32;19990;-71
2022/03/12 06:40:20;;;;;;;;;;;;;;;4.37;26.80;101533.41;4423350;32;19994;-71
2022/03/12 06:42:47;;;;;;;;;;;;;;;4.12;26.54;101534.31;4416069;32;20027;-72
2022/03/12 06:45:15;;;;;;;;;;;;;;;3.97;26.28;101543.47;4433605;32;19990;-71
2022/03/12 06:47:43;;;;;;;;;;;;;;;4.17;26.49;101545.75;4421567;32;19977;-72
2022/03/12 06:50:11;;;;;;;;;;;;;;;4.49;26.15;101547.06;4415812;32;19978;-71
2022/03/12 06:52:43;;;;;;;;;;;;;;;4.63;26.21;101550.56;4413954;32;19986;-70
2022/03/12 06:55:10;;;;;;;;;;;;;;;4.83;25.98;101549.34;4415588;32;20003;-71
2022/03/12 06:57:37;;;;;;;;;;;;;;;5.30;25.63;101551.56;4415917;32;20000;-71
2022/03/12 07:00:04;;;;;;;;;;;;;;;5.52;24.50;101552.16;4424130;32;19982;-71
2022/03/12 07:02:31;;;;;;;;;;;;;;;5.54;24.08;101555.69;4415368;32;19989;-71
2022/03/12 07:04:58;;;;;;;;;;;;;;;5.75;24.81;101560.44;4426447;32;19985;-71
2022/03/12 07:07:25;;;;;;;;;;;;;;;6.03;24.01;101548.56;4417391;32;19977;-72
2022/03/12 07:09:52;;;;;;;;;;;;;;;6.16;23.36;101554.41;4423762;32;20152;-70
2022/03/12 07:12:19;;;;;;;;;;;;;;;5.82;23.91;101560.91;4415241;32;20032;-72
2022/03/12 07:14:46;;;;;;;;;;;;;;;6.32;23.72;101567.44;4419457;32;19998;-71
2022/03/12 07:17:14;;;;;;;;;;;;;;;6.62;23.46;101568.38;4417334;32;20029;-70
2022/03/12 07:19:41;;;;;;;;;;;;;;;6.65;22.90;101567.69;4421742;32;19978;-71
2022/03/12 07:22:11;;;;;;;;;;;;;;;6.44;23.71;101562.13;4415209;32;19986;-71
2022/03/12 07:24:38;;;;;;;;;;;;;;;6.57;23.06;101558.63;4415202;32;19985;-72
2022/03/12 07:27:05;;;;;;;;;;;;;;;6.61;22.76;101565.75;4415263;32;20841;-70
2022/03/12 07:29:32;;;;;;;;;;;;;;;6.80;22.83;101563.47;4415025;32;20758;-70
2022/03/12 07:32:01;;;;;;;;;;;;;;;7.15;22.74;101551.75;4416749;32;20036;-70
2022/03/12 07:34:27;;;;;;;;;;;;;;;7.46;21.93;101555.22;4422700;32;19990;-69
2022/03/12 07:36:54;;;;;;;;;;;;;;;7.46;22.07;101560.38;4419880;32;19977;-72
2022/03/12 07:39:21;;;;;;;;;;;;;;;7.68;21.47;101556.44;4426078;32;20819;-70
2022/03/12 07:41:48;;;;;;;;;;;;;;;7.90;21.42;101554.22;4421885;32;19994;-71
2022/03/12 07:44:15;;;;;;;;;;;;;;;8.33;21.41;101561.69;4420638;32;19992;-69
2022/03/12 07:46:43;;;;;;;;;;;;;;;8.25;20.87;101552.66;4421654;32;19992;-70
2022/03/12 07:49:10;;;;;;;;;;;;;;;8.31;22.15;101547.81;4427916;32;19998;-70
2022/03/12 07:51:37;;;;;;;;;;;;;;;8.73;21.36;101548.31;4421669;32;20000;-70
2022/03/12 07:54:07;;;;;;;;;;;;;;;8.75;21.82;101545.81;4416450;32;19985;-69
2022/03/12 07:56:38;;;;;;;;;;;;;;;9.52;20.37;101529.78;4418729;32;20032;-71
2022/03/12 07:59:05;;;;;;;;;;;;;;;9.66;19.95;101528.72;4415012;32;19997;-70
2022/03/12 08:01:33;;;;;;;;;;;;;;;9.88;19.49;101537.50;4428318;32;20343;-70
2022/03/12 08:04:02;;;;;;;;;;;;;;;9.84;19.43;101527.81;4433158;32;20335;-70
2022/03/12 08:06:29;;;;;;;;;;;;;;;9.98;19.47;101527.63;4413916;32;19977;-70
2022/03/12 08:08:56;;;;;;;;;;;;;;;10.30;18.81;101530.81;4415691;32;22539;-72
2022/03/12 08:11:28;;;;;;;;;;;;;;;10.32;18.65;101538.66;4433224;32;20398;-71
2022/03/12 08:14:02;;;;;;;;;;;;;;;9.85;18.88;101534.75;4425486;32;20767;-71
2022/03/12 08:16:30;;;;;;;;;;;;;;;9.74;18.82;101531.69;4432161;32;19981;-72
2022/03/12 08:18:57;;;;;;;;;;;;;;;9.95;18.17;101539.53;4419517;32;20012;-72
2022/03/12 08:21:24;;;;;;;;;;;;;;;9.74;18.92;101532.56;4427433;32;20335;-71
2022/03/12 08:23:51;;;;;;;;;;;;;;;10.00;18.60;101527.72;4423580;32;20000;-74
2022/03/12 08:26:18;;;;;;;;;;;;;;;10.41;18.22;101531.28;4429759;32;20057;-72
2022/03/12 08:28:45;;;;;;;;;;;;;;;10.40;18.15;101532.09;4422932;32;20041;-72
2022/03/12 08:31:14;;;;;;;;;;;;;;;10.69;17.58;101526.50;4415150;32;20006;-71
2022/03/12 08:33:41;;;;;;;;;;;;;;;10.48;17.82;101530.75;4422500;32;20057;-74
2022/03/12 08:36:08;;;;;;;;;;;;;;;10.64;17.44;101532.28;4414181;32;20381;-72
2022/03/12 08:38:35;;;;;;;;;;;;;;;10.73;17.12;101531.81;4422401;32;20008;-71
2022/03/12 08:41:06;;;;;;;;;;;;;;;10.59;18.08;101529.50;4412853;32;19990;-72
2022/03/12 08:43:33;;;;;;;;;;;;;;;10.05;17.68;101528.81;4423795;32;20702;-72
2022/03/12 08:46:01;;;;;;;;;;;;;;;9.36;18.27;101522.13;4430548;32;19995;-72
2022/03/12 08:48:28;;;;;;;;;;;;;;;9.96;17.95;101523.22;4420233;32;20279;-71
2022/03/12 08:50:55;;;;;;;;;;;;;;;9.61;17.32;101530.22;4412071;32;20001;-71
2022/03/12 08:53:27;;;;;;;;;;;;;;;10.01;17.64;101521.69;4431325;32;20003;-71
2022/03/12 08:55:54;;;;;;;;;;;;;;;10.09;17.11;101520.38;4412199;32;19985;-71
2022/03/12 08:58:23;;;;;;;;;;;;;;;10.15;16.55;101528.41;4414528;32;20700;-72
2022/03/12 09:00:52;;;;;;;;;;;;;;;10.10;17.22;101524.72;4420382;32;20018;-71
2022/03/12 09:03:19;;;;;;;;;;;;;;;9.91;16.95;101519.53;4415749;32;19985;-71
2022/03/12 09:05:50;;;;;;;;;;;;;;;9.72;16.80;101518.66;4416136;32;19982;-71
2022/03/12 09:08:17;;;;;;;;;;;;;;;9.75;17.10;101520.53;4421529;32;19985;-71
2022/03/12 09:10:44;;;;;;;;;;;;;;;9.69;16.51;101526.28;4430993;32;20010;-72
2022/03/12 09:13:14;;;;;;;;;;;;;;;9.67;16.90;101525.34;4442941;32;20433;-71
2022/03/12 09:15:41;;;;;;;;;;;;;;;10.04;16.59;101521.84;4431443;32;20323;-71
2022/03/12 09:18:09;;;;;;;;;;;;;;;9.75;18.71;101513.62;4425186;32;20010;-71
2022/03/12 09:20:48;;;;;;;;;;;;;;;10.18;15.99;101519.91;4406322;32;19987;-71
2022/03/12 09:23:17;;;;;;;;;;;;;;;10.05;16.31;101523.62;4371496;32;20036;-72
2022/03/12 09:25:45;;;;;;;;;;;;;;;9.51;17.28;101525.44;4373027;32;20564;-71
2022/03/12 09:28:13;;;;;;;;;;;;;;;9.43;18.19;101524.19;4376611;32;20316;-72
2022/03/12 09:30:40;;;;;;;;;;;;;;;9.16;19.21;101524.63;4370527;32;19991;-71
2022/03/12 09:33:07;;;;;;;;;;;;;;;9.88;17.18;101514.22;4373202;32;20009;-71
2022/03/12 09:35:34;;;;;;;;;;;;;;;9.58;18.74;101519.75;4371453;32;19970;-71
2022/03/12 09:38:01;;;;;;;;;;;;;;;10.18;16.62;101522.50;4370591;32;20005;-71
2022/03/12 09:40:29;;;;;;;;;;;;;;;9.94;16.59;101515.37;4370925;32;20005;-71
2022/03/12 09:42:56;;;;;;;;;;;;;;;9.58;16.00;101509.41;4378536;32;20313;-71
2022/03/12 09:45:23;;;;;;;;;;;;;;;9.83;16.50;101502.75;4374504;32;20317;-72
2022/03/12 09:47:50;;;;;;;;;;;;;;;9.69;17.92;101508.19;4376317;32;19995;-71
2022/03/12 09:50:17;;;;;;;;;;;;;;;9.51;17.60;101505.63;4387815;32;19994;-72
2022/03/12 09:52:44;;;;;;;;;;;;;;;9.39;18.82;101509.34;4392436;32;20005;-71
2022/03/12 09:55:11;;;;;;;;;;;;;;;9.94;16.53;101509.31;4394374;32;20024;-71
2022/03/12 09:57:42;;;;;;;;;;;;;;;9.28;16.58;101511.41;4385651;32;19983;-72
2022/03/12 10:00:10;;;;;;;;;;;;;;;9.68;16.47;101506.41;4386138;32;20013;-71
2022/03/12 10:02:37;;;;;;;;;;;;;;;10.11;16.31;101507.47;4393130;32;20004;-71
2022/03/12 10:05:04;;;;;;;;;;;;;;;9.72;16.22;101499.69;4387474;32;20329;-71
2022/03/12 10:07:31;;;;;;;;;;;;;;;9.76;17.21;101488.66;4385903;32;19987;-71
2022/03/12 10:09:58;;;;;;;;;;;;;;;10.11;17.33;101497.13;4387802;32;19990;-73
2022/03/12 10:12:25;;;;;;;;;;;;;;;9.85;17.04;101490.78;4397524;32;20257;-72
2022/03/12 10:14:57;;;;;;;;;;;;;;;9.90;18.56;101491.91;4391319;32;19987;-71
2022/03/12 10:17:24;;;;;;;;;;;;;;;10.26;18.04;101487.50;4425949;32;19978;-72
2022/03/12 10:19:51;;;;;;;;;;;;;;;9.48;17.19;101482.22;4420486;32;19985;-71
2022/03/12 10:22:19;;;;;;;;;;;;;;;9.68;18.32;101480.56;4415622;32;19982;-71
2022/03/12 10:24:45;;;;;;;;;;;;;;;9.92;17.57;101495.41;4424469;32;21027;-71
2022/03/12 10:27:12;;;;;;;;;;;;;;;9.85;18.77;101488.19;4415411;32;20000;-71
2022/03/12 10:29:40;;;;;;;;;;;;;;;10.07;16.38;101496.12;4418151;32;20300;-70
2022/03/12 10:32:23;;;;;;;;;;;;;;;9.48;18.04;101483.94;4422581;32;20057;-70
2022/03/12 10:34:56;;;;;;;;;;;;;;;9.95;17.09;101490.38;4417267;32;19996;-70
2022/03/12 10:37:23;;;;;;;;;;;;;;;10.35;16.28;101487.03;4425800;32;20000;-69
2022/03/12 10:40:00;;;;;;;;;;;;;;;9.93;18.08;101486.88;4416013;32;20028;-70
2022/03/12 10:42:27;;;;;;;;;;;;;;;9.45;18.91;101481.22;4415252;32;19985;-70
2022/03/12 10:45:03;;;;;;;;;;;;;;;9.82;18.12;101483.78;4417861;32;19973;-72
2022/03/12 10:47:29;;;;;;;;;;;;;;;10.35;16.36;101471.50;4422745;32;19997;-70
2022/03/12 10:49:58;;;;;;;;;;;;;;;10.83;16.21;101467.47;4424078;32;20318;-70
2022/03/12 10:52:28;;;;;;;;;;;;;;;10.30;15.86;101475.56;4419422;32;20004;-70
2022/03/12 10:54:55;;;;;;;;;;;;;;;10.19;16.51;101468.19;4420656;32;20005;-71
2022/03/12 10:57:22;;;;;;;;;;;;;;;9.85;17.05;101462.34;4423239;32;20028;-71
2022/03/12 10:59:53;;;;;;;;;;;;;;;9.67;18.10;101465.00;4416000;32;20002;-71
2022/03/12 11:02:20;;;;;;;;;;;;;;;10.21;17.45;101463.97;4427556;32;19990;-72
2022/03/12 11:04:47;;;;;;;;;;;;;;;10.21;16.57;101458.81;4424203;32;19981;-71
2022/03/12 11:07:30;;;;;;;;;;;;;;;10.47;15.89;101459.97;4419652;32;19986;-71
2022/03/12 11:09:57;;;;;;;;;;;;;;;10.50;16.12;101456.63;4429790;32;19981;-71
2022/03/12 11:12:35;;;;;;;;;;;;;;;10.51;16.69;101453.19;4431476;32;19985;-71
2022/03/12 11:15:14;;;;;;;;;;;;;;;10.66;15.84;101447.78;4428021;32;19985;-71
2022/03/12 11:17:44;;;;;;;;;;;;;;;10.74;16.58;101441.19;4424088;32;19997;-71
2022/03/12 11:20:17;;;;;;;;;;;;;;;10.06;16.22;101447.78;4431223;32;20004;-71
2022/03/12 11:22:48;;;;;;;;;;;;;;;9.36;17.42;101439.44;4442248;32;20384;-71
2022/03/12 11:25:19;;;;;;;;;;;;;;;9.95;16.63;101433.47;4425473;32;20614;-71
2022/03/12 11:27:49;;;;;;;;;;;;;;;10.48;16.15;101434.94;4427404;32;20365;-71
2022/03/12 11:30:20;;;;;;;;;;;;;;;10.67;16.45;101434.00;4429642;32;19982;-72
2022/03/12 11:32:48;;;;;;;;;;;;;;;10.56;15.50;101425.81;4431737;32;20001;-71
2022/03/12 11:35:22;;;;;;;;;;;;;;;10.30;16.45;101424.69;4415692;32;20359;-71
2022/03/12 11:37:49;;;;;;;;;;;;;;;10.10;16.09;101436.75;4417392;32;20007;-71
2022/03/12 11:40:16;;;;;;;;;;;;;;;10.63;15.88;101426.94;4422139;32;20000;-72
2022/03/12 11:42:43;;;;;;;;;;;;;;;10.63;15.23;101422.66;4419546;32;20005;-72
2022/03/12 11:45:18;;;;;;;;;;;;;;;10.82;15.54;101418.22;4423924;32;19989;-71
2022/03/12 11:47:45;;;;;;;;;;;;;;;10.73;15.45;101407.50;4424787;32;20004;-71
2022/03/12 11:50:18;;;;;;;;;;;;;;;10.88;16.21;101408.06;4425951;32;20327;-71
2022/03/12 11:52:45;;;;;;;;;;;;;;;10.72;14.81;101406.59;4414696;32;20024;-71
2022/03/12 11:55:15;;;;;;;;;;;;;;;10.38;15.97;101400.03;4413719;32;20000;-71
2022/03/12 11:57:44;;;;;;;;;;;;;;;10.31;14.88;101407.47;4432695;32;19986;-71
2022/03/12 12:00:18;;;;;;;;;;;;;;;9.81;15.41;101394.09;4415353;32;20590;-71
2022/03/12 12:02:45;;;;;;;;;;;;;;;9.76;15.65;101391.31;4426643;32;19982;-71
2022/03/12 12:05:12;;;;;;;;;;;;;;;9.73;17.62;101396.34;4420929;32;20008;-71
2022/03/12 12:07:41;;;;;;;;;;;;;;;10.04;15.50;101392.50;4417158;32;20011;-71
2022/03/12 12:10:14;;;;;;;;;;;;;;;10.65;15.85;101379.53;4415615;32;20365;-71
2022/03/12 12:12:43;;;;;;;;;;;;;;;11.08;15.51;101376.09;4434109;32;20323;-72
2022/03/12 12:15:15;;;;;;;;;;;;;;;10.96;15.47;101375.59;4424605;32;19989;-72
2022/03/12 12:17:43;;;;;;;;;;;;;;;10.91;14.92;101366.75;4413545;32;20450;-72
2022/03/12 12:20:12;;;;;;;;;;;;;;;11.05;14.64;101365.59;4418426;32;19986;-71
2022/03/12 12:22:39;;;;;;;;;;;;;;;11.05;14.45;101370.78;4416086;32;20289;-72
2022/03/12 12:25:06;;;;;;;;;;;;;;;11.39;14.57;101359.06;4421693;32;19981;-73
2022/03/12 12:27:44;;;;;;;;;;;;;;;10.82;14.82;101371.59;4422542;32;20009;-72
2022/03/12 12:30:15;;;;;;;;;;;;;;;10.85;14.48;101357.06;4422983;32;19994;-72
2022/03/12 12:32:49;;;;;;;;;;;;;;;10.75;14.97;101364.38;4415259;32;20034;-72
2022/03/12 12:35:22;;;;;;;;;;;;;;;10.71;15.59;101350.44;4421533;32;19977;-71
2022/03/12 12:37:50;;;;;;;;;;;;;;;10.29;15.24;101354.75;4439692;32;19989;-72
2022/03/12 12:40:21;;;;;;;;;;;;;;;10.56;15.09;101357.56;4430759;32;19985;-71
2022/03/12 12:42:51;;;;;;;;;;;;;;;10.33;15.28;101351.47;4424878;32;20005;-72
2022/03/12 12:45:19;;;;;;;;;;;;;;;10.40;15.40;101348.31;4431991;32;19985;-71
2022/03/12 12:47:46;;;;;;;;;;;;;;;10.28;15.57;101345.25;4422790;32;19997;-73
2022/03/12 12:50:21;;;;;;;;;;;;;;;10.38;15.53;101342.19;4418848;32;20783;-73
2022/03/12 12:53:11;;;;;;;;;;;;;;;10.36;16.25;101346.41;4420744;32;20116;-72